Aérodrome :
LOGIN :

S'inscrire | Disclaimer

   EN    FR    IT 

 










Légende :    VFR   VFR Marginal   IFR   IFR Intensif   IFR Très Intensif
Visi : 
Plafond : 
>= 8 km
>= 3000ft
5 à 8 km
1000 à 3000 ft
1500m à 5 km
500 à 1000 ft
800 à 1500m
200 à 500 ft
< 800m
< 200 ft
Symboles :   Orages  Brouillard  Fortes neiges  Fortes précipitations  Vent > 20 kt
SIGMETs :   Divers  Orages  Givrage  Turbulence  Onde Orograph.  Cendres Volcan.







- Altitude de l'aérodrome : 1299 ft


EDTY - Adolf Würth

DERNIER METAR :
  • 210920Z 26010KT 230V290 9999 FEW023 SCT042 23/16 Q1022

METARs EXPIRÉS :
  • 210850Z 26009KT 230V290 9999 SCT023 23/18 Q1022
  • 210820Z 26008KT 230V290 9999 FEW015 SCT018 22/17 Q1021
  • 210750Z 25006KT 210V290 9999 FEW013 SCT016 22/18 Q1021
  • 210720Z 24005KT 210V280 9999 FEW021 BKN062 20/18 Q1021
  • 210650Z 22004KT 170V260 CAVOK 19/18 Q1021

TAF TAF EDTY
Valide du 21 à 09h jusqu'au 21 à 18h UTC


210800Z 2109/2118 24005KT 9999 SCT030
BECMG 2111/2113 30010KT
BECMG 2116/2118 29005KT
Pas de NOTAMs connus pour ce terrain.



MET'MAP, la Météo Aéronautique d'un coup d'oeil ! - Copyright ORBIFLY Décembre 2007 - Disclaimer

ORBIFLY MET'MAP TEAM :

Programmation & Développement : Alexandra Zaïnal
Conception & Développement : Baudouin d'Aumeries
Co-Programmation & Développement : Marc-Olivier Méhu
Soutien technique & logistique : Manuel Goepfert

Contact : metmap@orbifly.com




SOURCES & CREDITS :

   NOAA